Time;durP1;ratioP1;P1;durP2;ratioP2;P2;SDS_P1;SDS_P2;PMS_P1;PMS_P2;Temp;Humidity;BMP_temperature;BMP_pressure;BME280_temperature;BME280_humidity;BME280_pressure;Samples;Min_cycle;Max_cycle;Signal;HPM_P1;HPM_P2
2022/07/04 00:02:23;;;;;;;1.45;1.10;;;;;;;;;;5028384;28;20211;-41
2022/07/04 00:04:56;;;;;;;2.15;1.13;;;;;;;;;;5004184;28;20218;-42
2022/07/04 00:07:37;;;;;;;1.08;0.90;;;;;;;;;;5015326;28;20246;-43
2022/07/04 00:10:07;;;;;;;1.85;1.08;;;;;;;;;;5022555;28;20202;-40
2022/07/04 00:12:36;;;;;;;2.63;1.25;;;;;;;;;;5010069;28;20217;-42
2022/07/04 00:21:01;;;;;;;1.10;1.00;;;;;;;;;;5038695;28;20283;-46
2022/07/04 00:23:41;;;;;;;3.45;1.20;;;;;;;;;;5041107;28;20303;-43
2022/07/04 00:33:49;;;;;;;3.85;1.00;;;;;;;;;;5021969;28;20261;-43
2022/07/04 00:36:23;;;;;;;1.05;1.05;;;;;;;;;;5033078;28;20234;-44
2022/07/04 00:39:07;;;;;;;1.73;1.08;;;;;;;;;;5034432;28;20209;-44
2022/07/04 00:56:57;;;;;;;2.05;1.20;;;;;;;;;;5030297;28;20238;-46
2022/07/04 00:59:33;;;;;;;2.42;1.00;;;;;;;;;;5023301;28;20256;-46
2022/07/04 01:02:00;;;;;;;1.27;0.93;;;;;;;;;;5028295;28;20233;-42
2022/07/04 01:04:30;;;;;;;4.75;1.30;;;;;;;;;;5031291;28;20212;-40
2022/07/04 01:12:11;;;;;;;1.25;1.17;;;;;;;;;;5011941;28;20658;-46
2022/07/04 01:15:00;;;;;;;2.47;1.15;;;;;;;;;;5013762;28;20265;-42
2022/07/04 01:17:43;;;;;;;2.10;1.13;;;;;;;;;;5005974;28;20227;-43
2022/07/04 01:22:43;;;;;;;0.95;0.95;;;;;;;;;;5011969;28;20215;-33
2022/07/04 01:25:10;;;;;;;3.10;1.67;;;;;;;;;;5012181;28;20211;-42
2022/07/04 01:27:38;;;;;;;2.03;1.05;;;;;;;;;;4998155;28;20318;-41
2022/07/04 01:30:05;;;;;;;4.15;1.23;;;;;;;;;;5006945;28;20203;-42
2022/07/04 01:32:32;;;;;;;2.60;1.10;;;;;;;;;;5010254;28;20206;-44
2022/07/04 01:34:59;;;;;;;0.90;0.90;;;;;;;;;;4997795;28;20214;-46
2022/07/04 01:37:26;;;;;;;1.83;1.27;;;;;;;;;;5005142;28;20242;-44
2022/07/04 01:39:55;;;;;;;1.02;1.02;;;;;;;;;;5009475;28;20204;-43
2022/07/04 01:42:22;;;;;;;1.30;1.20;;;;;;;;;;5010693;28;20207;-42
2022/07/04 01:44:49;;;;;;;1.02;1.02;;;;;;;;;;5001593;28;20207;-43
2022/07/04 01:47:16;;;;;;;1.77;1.30;;;;;;;;;;5009088;28;20246;-44
2022/07/04 01:49:43;;;;;;;2.38;1.15;;;;;;;;;;5008102;28;20207;-41
2022/07/04 01:52:10;;;;;;;1.20;1.10;;;;;;;;;;5003362;28;20207;-46
2022/07/04 01:54:37;;;;;;;1.35;1.00;;;;;;;;;;5014756;28;20203;-46
2022/07/04 01:57:06;;;;;;;3.33;1.15;;;;;;;;;;5005875;28;20234;-41
2022/07/04 02:02:18;;;;;;;1.60;1.20;;;;;;;;;;4995698;28;20194;-44
2022/07/04 02:04:45;;;;;;;2.05;1.13;;;;;;;;;;4999809;28;20211;-45
2022/07/04 02:07:12;;;;;;;1.67;1.30;;;;;;;;;;5006570;28;20227;-41
2022/07/04 02:09:40;;;;;;;1.48;1.10;;;;;;;;;;5013867;28;20209;-41
2022/07/04 02:14:54;;;;;;;1.20;1.20;;;;;;;;;;5010575;28;20290;-44
2022/07/04 02:17:21;;;;;;;1.73;1.00;;;;;;;;;;5013441;28;20227;-42
2022/07/04 02:19:48;;;;;;;1.00;1.00;;;;;;;;;;5002299;28;20218;-38
2022/07/04 02:22:16;;;;;;;1.20;1.10;;;;;;;;;;5004962;28;20229;-44
2022/07/04 02:24:43;;;;;;;2.00;1.02;;;;;;;;;;5005453;28;20646;-43
2022/07/04 02:27:11;;;;;;;1.42;1.30;;;;;;;;;;5007899;28;20234;-43
2022/07/04 02:29:39;;;;;;;1.70;1.10;;;;;;;;;;5012411;28;20217;-44
2022/07/04 02:32:06;;;;;;;3.08;1.20;;;;;;;;;;5012735;28;20211;-42
2022/07/04 02:34:33;;;;;;;2.63;1.48;;;;;;;;;;5001230;28;20218;-42
2022/07/04 02:39:29;;;;;;;2.73;1.10;;;;;;;;;;5051585;28;20297;-32
2022/07/04 02:41:56;;;;;;;1.30;1.20;;;;;;;;;;5044414;28;20214;-34
2022/07/04 02:44:25;;;;;;;2.75;1.10;;;;;;;;;;5043069;28;20213;-32
2022/07/04 02:46:52;;;;;;;7.70;1.50;;;;;;;;;;5049816;28;20225;-32
2022/07/04 02:49:19;;;;;;;6.10;1.40;;;;;;;;;;5023688;28;20203;-31
2022/07/04 02:51:46;;;;;;;2.35;1.33;;;;;;;;;;5018198;28;20211;-31
2022/07/04 02:54:13;;;;;;;4.25;1.10;;;;;;;;;;5012652;28;20211;-33
2022/07/04 02:56:40;;;;;;;3.70;1.58;;;;;;;;;;5013227;28;20468;-29
2022/07/04 02:59:07;;;;;;;1.40;1.08;;;;;;;;;;5019447;28;20224;-34
2022/07/04 03:01:36;;;;;;;2.13;1.08;;;;;;;;;;5031928;28;20215;-30
2022/07/04 03:04:03;;;;;;;1.20;1.20;;;;;;;;;;5022520;28;20217;-31
2022/07/04 03:06:31;;;;;;;1.63;1.10;;;;;;;;;;5019490;28;20236;-32
2022/07/04 03:08:58;;;;;;;1.40;1.30;;;;;;;;;;5032384;28;20198;-32
2022/07/04 03:11:25;;;;;;;1.33;1.15;;;;;;;;;;5029487;28;20220;-29
2022/07/04 03:13:52;;;;;;;1.27;1.13;;;;;;;;;;5022024;28;20211;-34
2022/07/04 03:16:19;;;;;;;2.10;1.17;;;;;;;;;;5032816;28;20571;-32
2022/07/04 03:18:48;;;;;;;1.50;1.17;;;;;;;;;;5032075;28;20222;-30
2022/07/04 03:21:15;;;;;;;5.43;1.23;;;;;;;;;;5028325;28;20221;-29
2022/07/04 03:23:42;;;;;;;1.83;1.20;;;;;;;;;;5035512;28;20199;-33
2022/07/04 03:26:09;;;;;;;0.90;0.90;;;;;;;;;;5035789;28;20237;-33
2022/07/04 03:28:36;;;;;;;1.30;1.20;;;;;;;;;;5023045;28;20199;-33
2022/07/04 03:31:04;;;;;;;3.23;1.40;;;;;;;;;;5031608;28;20695;-29
2022/07/04 03:33:31;;;;;;;1.00;1.00;;;;;;;;;;5029967;28;20202;-31
2022/07/04 03:35:59;;;;;;;1.98;1.30;;;;;;;;;;5024654;28;20213;-32
2022/07/04 03:38:26;;;;;;;2.30;1.20;;;;;;;;;;5031575;28;20228;-30
2022/07/04 03:40:53;;;;;;;1.37;1.23;;;;;;;;;;5033634;28;20268;-30
2022/07/04 03:43:20;;;;;;;3.00;1.70;;;;;;;;;;5017247;28;20563;-29
2022/07/04 03:45:48;;;;;;;1.38;1.15;;;;;;;;;;5026776;28;20214;-30
2022/07/04 03:48:15;;;;;;;1.40;1.30;;;;;;;;;;5030344;28;20211;-29
2022/07/04 03:50:42;;;;;;;1.67;1.40;;;;;;;;;;5018374;28;20219;-29
2022/07/04 03:53:12;;;;;;;1.87;1.20;;;;;;;;;;5025765;28;20198;-33
2022/07/04 03:55:39;;;;;;;1.70;1.60;;;;;;;;;;5032353;28;20234;-31
2022/07/04 03:58:06;;;;;;;1.60;1.37;;;;;;;;;;5026986;28;20229;-27
2022/07/04 04:00:33;;;;;;;2.80;1.30;;;;;;;;;;5033626;28;20266;-29
2022/07/04 04:03:00;;;;;;;1.27;1.00;;;;;;;;;;5017930;28;20207;-29
2022/07/04 04:05:26;;;;;;;1.30;1.20;;;;;;;;;;5020038;28;20210;-30
2022/07/04 04:07:54;;;;;;;1.27;1.20;;;;;;;;;;5032918;28;20218;-30
2022/07/04 04:10:23;;;;;;;4.73;1.43;;;;;;;;;;5033396;28;20198;-31
2022/07/04 04:12:50;;;;;;;1.70;1.23;;;;;;;;;;5021857;28;20212;-28
2022/07/04 04:15:17;;;;;;;3.70;1.50;;;;;;;;;;5032987;28;20197;-28
2022/07/04 04:17:44;;;;;;;2.17;1.20;;;;;;;;;;5031475;28;20226;-34
2022/07/04 04:20:12;;;;;;;1.40;1.30;;;;;;;;;;5015541;28;20206;-30
2022/07/04 04:22:39;;;;;;;2.50;1.47;;;;;;;;;;5028897;28;20203;-30
2022/07/04 04:25:07;;;;;;;1.67;1.10;;;;;;;;;;5033615;28;20194;-32
2022/07/04 04:27:35;;;;;;;1.70;1.50;;;;;;;;;;5025708;28;20223;-31
2022/07/04 04:30:03;;;;;;;1.43;1.30;;;;;;;;;;5029470;28;20647;-28
2022/07/04 04:32:30;;;;;;;3.47;1.33;;;;;;;;;;5033126;28;20663;-31
2022/07/04 04:34:57;;;;;;;2.83;1.50;;;;;;;;;;5020046;28;20233;-27
2022/07/04 04:37:24;;;;;;;1.13;1.07;;;;;;;;;;5033390;28;20234;-30
2022/07/04 04:39:51;;;;;;;1.40;1.30;;;;;;;;;;5034506;28;20215;-30
2022/07/04 04:42:18;;;;;;;1.43;1.20;;;;;;;;;;5031151;28;20202;-28
2022/07/04 04:44:47;;;;;;;1.60;1.13;;;;;;;;;;5031627;28;20213;-30
2022/07/04 04:47:14;;;;;;;2.50;1.70;;;;;;;;;;5033510;28;20234;-30
2022/07/04 04:49:41;;;;;;;1.37;1.27;;;;;;;;;;5018183;28;20201;-29
2022/07/04 04:52:09;;;;;;;1.73;1.33;;;;;;;;;;5025245;28;20207;-31
2022/07/04 04:54:36;;;;;;;2.10;1.30;;;;;;;;;;5017318;28;20728;-28
2022/07/04 04:57:03;;;;;;;1.13;1.10;;;;;;;;;;5014243;28;20223;-29
2022/07/04 04:59:31;;;;;;;2.77;1.97;;;;;;;;;;5028909;28;20228;-30
2022/07/04 05:01:59;;;;;;;1.60;1.50;;;;;;;;;;5025969;28;20198;-33
2022/07/04 05:04:26;;;;;;;1.77;1.53;;;;;;;;;;5018706;28;20211;-28
2022/07/04 05:06:53;;;;;;;2.03;1.27;;;;;;;;;;5022100;28;20229;-30
2022/07/04 05:09:21;;;;;;;3.20;1.50;;;;;;;;;;5030895;28;20198;-27
2022/07/04 05:11:48;;;;;;;1.57;1.53;;;;;;;;;;5032935;28;20206;-31
2022/07/04 05:14:15;;;;;;;3.27;1.43;;;;;;;;;;5021989;28;20203;-31
2022/07/04 05:16:42;;;;;;;1.77;1.33;;;;;;;;;;5028992;28;20222;-30
2022/07/04 05:19:12;;;;;;;1.60;1.50;;;;;;;;;;5021583;28;20719;-29
2022/07/04 05:21:39;;;;;;;3.83;1.70;;;;;;;;;;5027901;28;20255;-28
2022/07/04 05:24:06;;;;;;;4.60;1.50;;;;;;;;;;5024063;28;20217;-28
2022/07/04 05:26:33;;;;;;;2.17;1.50;;;;;;;;;;5031857;28;20230;-31
2022/07/04 05:29:00;;;;;;;1.30;1.20;;;;;;;;;;5019183;28;20225;-30
2022/07/04 05:31:28;;;;;;;1.80;1.50;;;;;;;;;;5024312;28;20214;-30
2022/07/04 05:33:55;;;;;;;2.40;1.60;;;;;;;;;;5029217;28;20216;-31
2022/07/04 05:36:24;;;;;;;1.70;1.60;;;;;;;;;;5029934;28;20591;-29
2022/07/04 05:38:51;;;;;;;1.40;1.30;;;;;;;;;;5022664;28;20583;-30
2022/07/04 05:41:18;;;;;;;2.30;1.50;;;;;;;;;;5029789;28;20206;-31
2022/07/04 05:43:45;;;;;;;2.17;1.33;;;;;;;;;;5022962;28;20210;-29
2022/07/04 05:46:13;;;;;;;3.33;1.87;;;;;;;;;;5032428;28;20232;-26
2022/07/04 05:48:40;;;;;;;6.17;1.77;;;;;;;;;;5024145;28;20207;-29
2022/07/04 05:51:07;;;;;;;1.60;1.50;;;;;;;;;;5017594;28;20206;-32
2022/07/04 05:53:36;;;;;;;1.40;1.30;;;;;;;;;;5032206;28;20194;-28
2022/07/04 05:56:04;;;;;;;5.47;1.80;;;;;;;;;;5030081;28;20244;-29
2022/07/04 05:58:31;;;;;;;2.25;1.70;;;;;;;;;;5030372;28;20321;-28
2022/07/04 06:00:58;;;;;;;4.25;1.67;;;;;;;;;;5032397;28;20203;-30
2022/07/04 06:03:25;;;;;;;3.22;1.77;;;;;;;;;;5027236;28;20205;-29
2022/07/04 06:05:53;;;;;;;2.22;1.30;;;;;;;;;;5020094;28;20202;-33
2022/07/04 06:08:20;;;;;;;3.88;1.42;;;;;;;;;;5024381;28;20289;-32
2022/07/04 06:10:49;;;;;;;2.90;1.52;;;;;;;;;;5028908;28;20209;-31
2022/07/04 06:13:16;;;;;;;3.35;2.78;;;;;;;;;;5032297;28;20237;-29
2022/07/04 06:15:43;;;;;;;2.90;1.33;;;;;;;;;;5024543;28;20204;-32
2022/07/04 06:18:12;;;;;;;1.65;1.38;;;;;;;;;;5013173;28;20206;-32
2022/07/04 06:20:39;;;;;;;2.38;1.48;;;;;;;;;;5029189;28;20216;-31
2022/07/04 06:23:07;;;;;;;1.88;1.30;;;;;;;;;;5029816;28;20691;-32
2022/07/04 06:25:34;;;;;;;1.58;1.40;;;;;;;;;;5027924;28;20643;-29
2022/07/04 06:28:03;;;;;;;1.33;1.15;;;;;;;;;;5026591;28;20234;-28
2022/07/04 06:30:31;;;;;;;1.80;1.30;;;;;;;;;;5019718;28;20668;-32
2022/07/04 06:32:59;;;;;;;1.90;1.05;;;;;;;;;;5011796;28;20409;-26
2022/07/04 06:35:45;;;;;;;1.75;1.38;;;;;;;;;;5013066;28;20274;-27
2022/07/04 06:38:12;;;;;;;2.63;1.40;;;;;;;;;;5023417;28;20214;-30
2022/07/04 06:40:39;;;;;;;1.38;1.30;;;;;;;;;;5034283;28;20222;-29
2022/07/04 06:43:08;;;;;;;1.60;1.50;;;;;;;;;;5021698;28;20223;-29
2022/07/04 06:45:35;;;;;;;1.63;1.30;;;;;;;;;;5027690;28;20213;-32
2022/07/04 06:48:03;;;;;;;1.60;1.50;;;;;;;;;;5031166;28;20225;-29
2022/07/04 06:50:35;;;;;;;3.03;1.67;;;;;;;;;;5026449;28;20207;-32
2022/07/04 06:53:03;;;;;;;4.20;1.52;;;;;;;;;;5033486;28;20214;-31
2022/07/04 06:55:30;;;;;;;4.25;1.95;;;;;;;;;;5020263;28;20699;-32
2022/07/04 06:57:58;;;;;;;4.05;1.50;;;;;;;;;;5023843;28;20218;-33
2022/07/04 07:00:26;;;;;;;3.17;1.33;;;;;;;;;;5027001;28;20233;-34
2022/07/04 07:02:54;;;;;;;1.40;1.35;;;;;;;;;;5031416;28;20204;-27
2022/07/04 07:05:21;;;;;;;2.20;1.27;;;;;;;;;;5020222;28;20210;-31
2022/07/04 07:07:48;;;;;;;1.50;1.35;;;;;;;;;;5034594;28;20577;-30
2022/07/04 07:10:15;;;;;;;2.35;1.38;;;;;;;;;;5026121;28;20203;-28
2022/07/04 07:12:42;;;;;;;3.75;1.48;;;;;;;;;;5017020;28;20203;-30
2022/07/04 07:15:10;;;;;;;3.60;1.75;;;;;;;;;;5029048;28;20204;-28
2022/07/04 07:17:38;;;;;;;2.63;1.38;;;;;;;;;;5034141;28;20248;-29
2022/07/04 07:20:06;;;;;;;1.85;1.58;;;;;;;;;;5026009;28;20234;-30
2022/07/04 07:22:33;;;;;;;3.33;1.15;;;;;;;;;;5033985;28;20218;-29
2022/07/04 07:25:00;;;;;;;1.60;1.50;;;;;;;;;;5051040;28;20293;-29
2022/07/04 07:27:28;;;;;;;1.85;1.45;;;;;;;;;;5050910;28;20237;-29
2022/07/04 07:29:55;;;;;;;2.08;1.55;;;;;;;;;;5020164;28;20203;-28
2022/07/04 07:32:22;;;;;;;1.60;1.30;;;;;;;;;;5030516;28;20203;-28
2022/07/04 07:34:53;;;;;;;3.92;1.75;;;;;;;;;;5019279;28;20210;-34
2022/07/04 07:37:22;;;;;;;1.55;1.40;;;;;;;;;;5033226;28;20231;-29
2022/07/04 07:39:49;;;;;;;3.15;1.55;;;;;;;;;;5025299;28;20312;-27
2022/07/04 07:42:16;;;;;;;3.08;1.55;;;;;;;;;;5030835;28;20208;-29
2022/07/04 07:44:45;;;;;;;4.72;1.60;;;;;;;;;;5024679;28;20218;-29
2022/07/04 07:47:13;;;;;;;3.47;1.30;;;;;;;;;;5031933;28;20221;-31
2022/07/04 07:49:40;;;;;;;3.55;1.20;;;;;;;;;;5028549;28;20196;-29
2022/07/04 07:52:09;;;;;;;1.50;1.40;;;;;;;;;;5028875;28;20333;-30
2022/07/04 07:54:36;;;;;;;2.75;1.80;;;;;;;;;;5013589;28;20208;-31
2022/07/04 07:57:03;;;;;;;3.22;1.35;;;;;;;;;;5013631;28;20282;-30
2022/07/04 07:59:30;;;;;;;2.53;1.30;;;;;;;;;;5019509;28;20227;-29
2022/07/04 08:01:57;;;;;;;2.30;1.48;;;;;;;;;;5030927;28;20209;-32
2022/07/04 08:04:37;;;;;;;4.90;1.40;;;;;;;;;;5028416;28;20285;-32
2022/07/04 08:07:04;;;;;;;4.32;1.92;;;;;;;;;;5018117;28;20261;-31
2022/07/04 08:09:33;;;;;;;1.50;1.40;;;;;;;;;;5024863;28;20206;-30
2022/07/04 08:12:00;;;;;;;40.58;2.97;;;;;;;;;;5026614;28;20203;-32
2022/07/04 08:14:27;;;;;;;2.75;1.55;;;;;;;;;;5029580;28;20202;-29
2022/07/04 08:16:55;;;;;;;2.38;1.52;;;;;;;;;;5031558;28;20284;-32
2022/07/04 08:19:24;;;;;;;1.85;1.50;;;;;;;;;;5029403;28;20298;-29
2022/07/04 08:21:51;;;;;;;3.25;1.80;;;;;;;;;;5035453;28;20735;-29
2022/07/04 08:24:18;;;;;;;1.73;1.30;;;;;;;;;;5020406;28;20211;-27
2022/07/04 08:26:47;;;;;;;3.10;1.70;;;;;;;;;;5010041;28;20229;-32
2022/07/04 08:29:15;;;;;;;7.32;1.85;;;;;;;;;;5022515;28;20200;-31
2022/07/04 08:31:42;;;;;;;2.70;1.60;;;;;;;;;;5026236;28;20207;-28
2022/07/04 08:34:10;;;;;;;1.67;1.55;;;;;;;;;;5023364;28;20664;-31
2022/07/04 08:39:05;;;;;;;4.57;1.73;;;;;;;;;;5027487;28;20252;-34
2022/07/04 08:41:35;;;;;;;2.85;1.60;;;;;;;;;;5043180;28;20206;-35
2022/07/04 08:44:05;;;;;;;3.55;1.77;;;;;;;;;;5036396;28;20198;-35
2022/07/04 08:46:32;;;;;;;2.00;1.90;;;;;;;;;;5036392;28;20221;-35
2022/07/04 08:49:00;;;;;;;3.00;2.03;;;;;;;;;;5032373;28;20208;-39
2022/07/04 08:51:31;;;;;;;2.15;1.65;;;;;;;;;;5040162;28;20211;-31
2022/07/04 08:53:58;;;;;;;2.00;1.80;;;;;;;;;;5043199;28;20259;-32
2022/07/04 08:59:12;;;;;;;3.10;1.90;;;;;;;;;;5046909;28;20256;-38
2022/07/04 09:01:41;;;;;;;6.13;1.70;;;;;;;;;;5044674;28;20202;-35
2022/07/04 09:04:09;;;;;;;2.58;1.80;;;;;;;;;;5035263;28;20212;-42
2022/07/04 09:06:36;;;;;;;2.40;1.60;;;;;;;;;;5036486;28;20213;-33
2022/07/04 09:09:04;;;;;;;4.57;1.80;;;;;;;;;;5038098;28;20209;-35
2022/07/04 09:11:31;;;;;;;7.40;1.90;;;;;;;;;;5042076;28;20209;-34
2022/07/04 09:13:59;;;;;;;1.83;1.70;;;;;;;;;;5048630;28;20202;-37
2022/07/04 09:16:27;;;;;;;2.15;1.60;;;;;;;;;;5047262;28;20218;-35
2022/07/04 09:18:56;;;;;;;3.53;2.13;;;;;;;;;;5046213;28;20221;-35
2022/07/04 09:21:25;;;;;;;4.45;1.98;;;;;;;;;;5046018;28;20218;-31
2022/07/04 09:23:52;;;;;;;2.58;1.50;;;;;;;;;;5050460;28;20265;-36
2022/07/04 09:26:20;;;;;;;1.98;1.80;;;;;;;;;;5048066;28;20231;-35
2022/07/04 09:28:52;;;;;;;2.13;1.90;;;;;;;;;;5036439;28;20198;-34
2022/07/04 09:31:20;;;;;;;2.28;1.70;;;;;;;;;;5050255;28;20195;-32
2022/07/04 09:33:52;;;;;;;5.22;2.00;;;;;;;;;;5047777;28;20204;-31
2022/07/04 09:36:24;;;;;;;4.75;1.70;;;;;;;;;;5046191;28;20277;-30
2022/07/04 09:39:09;;;;;;;3.30;1.70;;;;;;;;;;5052427;28;20243;-33
2022/07/04 09:41:51;;;;;;;2.90;1.75;;;;;;;;;;5050623;28;20194;-37
2022/07/04 09:44:18;;;;;;;1.88;1.52;;;;;;;;;;5047690;28;20210;-35
2022/07/04 09:46:45;;;;;;;4.03;2.08;;;;;;;;;;5052330;28;20220;-35
2022/07/04 09:49:14;;;;;;;2.03;1.77;;;;;;;;;;5041552;28;20238;-34
2022/07/04 09:51:42;;;;;;;4.40;1.88;;;;;;;;;;5032945;28;20200;-36
2022/07/04 09:54:21;;;;;;;2.92;1.38;;;;;;;;;;5051101;28;20213;-32
2022/07/04 09:56:57;;;;;;;3.25;1.88;;;;;;;;;;5052800;28;20235;-37
2022/07/04 09:59:24;;;;;;;2.97;1.90;;;;;;;;;;5037504;28;20205;-32
2022/07/04 10:01:52;;;;;;;1.50;1.40;;;;;;;;;;5049227;28;20208;-33
2022/07/04 10:04:24;;;;;;;3.90;1.77;;;;;;;;;;5040501;28;20208;-38
2022/07/04 10:06:51;;;;;;;2.10;1.70;;;;;;;;;;5034612;28;20229;-31
2022/07/04 10:09:19;;;;;;;5.45;1.80;;;;;;;;;;5041815;28;20211;-36
2022/07/04 10:11:47;;;;;;;1.75;1.50;;;;;;;;;;5045048;28;20209;-35
2022/07/04 10:14:15;;;;;;;1.80;1.70;;;;;;;;;;5051064;28;20215;-38
2022/07/04 10:16:42;;;;;;;2.08;1.70;;;;;;;;;;5049382;28;20232;-40
2022/07/04 10:19:12;;;;;;;2.33;1.65;;;;;;;;;;5049086;28;20207;-38
2022/07/04 10:21:40;;;;;;;2.38;1.98;;;;;;;;;;5045069;28;20220;-37
2022/07/04 10:24:08;;;;;;;1.92;1.70;;;;;;;;;;5045101;28;20206;-37
2022/07/04 10:26:36;;;;;;;3.13;1.95;;;;;;;;;;5049193;28;20229;-33
2022/07/04 10:29:04;;;;;;;5.25;1.80;;;;;;;;;;5054127;28;20204;-40
2022/07/04 10:31:32;;;;;;;3.90;1.63;;;;;;;;;;5056073;28;20215;-34
2022/07/04 10:33:59;;;;;;;4.28;1.83;;;;;;;;;;5042428;28;20203;-35
2022/07/04 10:36:29;;;;;;;1.80;1.58;;;;;;;;;;5041309;28;20219;-30
2022/07/04 10:38:58;;;;;;;2.47;1.30;;;;;;;;;;5049688;28;20215;-32
2022/07/04 10:41:26;;;;;;;1.52;1.30;;;;;;;;;;5055344;28;20298;-36
2022/07/04 10:43:56;;;;;;;1.30;1.20;;;;;;;;;;5036473;28;20220;-30
2022/07/04 10:46:30;;;;;;;2.28;1.52;;;;;;;;;;5038063;28;20285;-36
2022/07/04 10:48:58;;;;;;;5.22;1.98;;;;;;;;;;5051207;28;20295;-34
2022/07/04 10:51:39;;;;;;;1.63;1.40;;;;;;;;;;5044489;28;20209;-40
2022/07/04 10:54:08;;;;;;;1.17;1.17;;;;;;;;;;5041764;28;20211;-39
2022/07/04 10:56:37;;;;;;;7.28;1.45;;;;;;;;;;5054259;28;20225;-38
2022/07/04 10:59:09;;;;;;;3.92;1.63;;;;;;;;;;5055347;28;20207;-40
2022/07/04 11:01:36;;;;;;;2.85;1.60;;;;;;;;;;5047977;28;20266;-33
2022/07/04 11:04:03;;;;;;;2.75;1.63;;;;;;;;;;5042509;28;20200;-33
2022/07/04 11:06:50;;;;;;;2.33;1.50;;;;;;;;;;5049295;28;20236;-39
2022/07/04 11:09:19;;;;;;;1.95;1.52;;;;;;;;;;5041693;28;20205;-37
2022/07/04 11:11:49;;;;;;;1.80;1.70;;;;;;;;;;5041501;28;20213;-39
2022/07/04 11:14:47;;;;;;;1.48;1.20;;;;;;;;;;5045073;28;20202;-37
2022/07/04 11:17:14;;;;;;;3.13;1.42;;;;;;;;;;4991867;28;20234;-41
2022/07/04 11:19:43;;;;;;;1.58;1.30;;;;;;;;;;5029224;28;20205;-37
2022/07/04 11:22:11;;;;;;;5.20;1.75;;;;;;;;;;5047657;28;20212;-36
2022/07/04 11:24:40;;;;;;;2.40;1.35;;;;;;;;;;5047566;28;20222;-38
2022/07/04 11:27:09;;;;;;;2.10;1.40;;;;;;;;;;5034468;28;20231;-37
2022/07/04 11:29:37;;;;;;;3.08;1.58;;;;;;;;;;5046427;28;20212;-35
2022/07/04 11:32:07;;;;;;;3.20;1.20;;;;;;;;;;5053613;28;20205;-39
2022/07/04 11:34:34;;;;;;;1.30;1.30;;;;;;;;;;5042938;28;20228;-37
2022/07/04 11:37:04;;;;;;;2.35;1.35;;;;;;;;;;5050690;28;20245;-36
2022/07/04 11:39:31;;;;;;;52.50;13.13;;;;;;;;;;5047487;28;20204;-41
2022/07/04 11:47:33;;;;;;;4.18;1.33;;;;;;;;;;5044770;28;20281;-36
2022/07/04 11:50:01;;;;;;;2.65;1.60;;;;;;;;;;5044961;28;20204;-42
2022/07/04 11:52:29;;;;;;;1.48;1.38;;;;;;;;;;5054393;28;20235;-36
2022/07/04 11:54:57;;;;;;;1.73;1.63;;;;;;;;;;5051825;28;20203;-40
2022/07/04 11:57:26;;;;;;;1.60;1.50;;;;;;;;;;5042419;28;20254;-38
2022/07/04 11:59:55;;;;;;;2.22;1.60;;;;;;;;;;5040287;28;20252;-35
2022/07/04 12:02:22;;;;;;;4.30;1.40;;;;;;;;;;5047705;28;20203;-39
2022/07/04 12:04:49;;;;;;;1.20;1.20;;;;;;;;;;5041136;28;20205;-41
2022/07/04 12:07:17;;;;;;;1.55;1.25;;;;;;;;;;5036509;28;20235;-34
2022/07/04 12:09:45;;;;;;;1.50;1.40;;;;;;;;;;5034342;28;20302;-36
2022/07/04 12:12:12;;;;;;;1.95;1.50;;;;;;;;;;5034262;28;20202;-37
2022/07/04 12:14:41;;;;;;;2.50;1.63;;;;;;;;;;5035179;28;20212;-39
2022/07/04 12:17:25;;;;;;;1.15;1.05;;;;;;;;;;5039664;28;20223;-38
2022/07/04 12:19:53;;;;;;;1.63;1.30;;;;;;;;;;5043523;28;20208;-39
2022/07/04 12:22:30;;;;;;;3.72;2.00;;;;;;;;;;5046479;28;20197;-33
2022/07/04 12:24:58;;;;;;;1.75;1.50;;;;;;;;;;5053461;28;20204;-37
2022/07/04 12:27:25;;;;;;;2.78;1.30;;;;;;;;;;5045823;28;20229;-36
2022/07/04 12:29:54;;;;;;;3.50;1.90;;;;;;;;;;5050670;28;20204;-35
2022/07/04 12:32:22;;;;;;;1.67;1.25;;;;;;;;;;5043058;28;20247;-38
2022/07/04 12:34:49;;;;;;;2.22;1.30;;;;;;;;;;5043580;28;20204;-36
2022/07/04 12:37:17;;;;;;;1.40;1.30;;;;;;;;;;5045573;28;20255;-37
2022/07/04 12:39:45;;;;;;;1.33;1.23;;;;;;;;;;5053606;28;20235;-38
2022/07/04 12:42:13;;;;;;;1.52;1.42;;;;;;;;;;5053101;28;20218;-36
2022/07/04 12:44:41;;;;;;;1.80;1.63;;;;;;;;;;5045498;28;20220;-43
2022/07/04 12:47:10;;;;;;;1.30;1.20;;;;;;;;;;5049036;28;20218;-39
2022/07/04 12:49:38;;;;;;;1.63;1.50;;;;;;;;;;5033375;28;20209;-36
2022/07/04 12:52:05;;;;;;;1.38;1.25;;;;;;;;;;5051989;28;20296;-33
2022/07/04 12:54:33;;;;;;;2.20;1.73;;;;;;;;;;5038207;28;20214;-33
2022/07/04 12:57:07;;;;;;;4.97;1.70;;;;;;;;;;5033510;28;20256;-37
2022/07/04 12:59:34;;;;;;;1.40;1.30;;;;;;;;;;5040264;28;20210;-39
2022/07/04 13:02:02;;;;;;;1.65;1.50;;;;;;;;;;5042900;28;20221;-34
2022/07/04 13:04:32;;;;;;;1.75;1.30;;;;;;;;;;5047395;28;20209;-34
2022/07/04 13:07:00;;;;;;;7.13;1.42;;;;;;;;;;5046385;28;20225;-41
2022/07/04 13:09:27;;;;;;;3.03;1.70;;;;;;;;;;5050021;28;20209;-34
2022/07/04 13:14:40;;;;;;;3.97;1.90;;;;;;;;;;5044634;28;20195;-33
2022/07/04 13:17:07;;;;;;;1.92;1.33;;;;;;;;;;5040099;28;20247;-35
2022/07/04 13:19:35;;;;;;;1.48;1.38;;;;;;;;;;5047949;28;20209;-39
2022/07/04 13:22:02;;;;;;;2.90;1.50;;;;;;;;;;5035821;28;20259;-36
2022/07/04 13:24:30;;;;;;;1.83;1.48;;;;;;;;;;5051056;28;20213;-35
2022/07/04 13:26:57;;;;;;;2.67;1.27;;;;;;;;;;5050747;28;20220;-35
2022/07/04 13:29:24;;;;;;;3.05;1.20;;;;;;;;;;5039412;28;20216;-38
2022/07/04 13:31:51;;;;;;;3.58;1.55;;;;;;;;;;5043906;28;20210;-38
2022/07/04 13:34:18;;;;;;;1.75;1.30;;;;;;;;;;5046165;28;20207;-38
2022/07/04 13:36:47;;;;;;;1.60;1.40;;;;;;;;;;5044387;28;20228;-38
2022/07/04 13:39:16;;;;;;;13.88;2.47;;;;;;;;;;5052116;28;20226;-40
2022/07/04 13:41:43;;;;;;;5.57;1.63;;;;;;;;;;5046967;28;20252;-39
2022/07/04 13:44:15;;;;;;;12.43;2.70;;;;;;;;;;5050681;28;20206;-40
2022/07/04 13:46:43;;;;;;;8.48;1.40;;;;;;;;;;5052222;28;20292;-34
2022/07/04 13:49:11;;;;;;;1.30;1.15;;;;;;;;;;5044727;28;20229;-35
2022/07/04 13:51:38;;;;;;;3.40;1.30;;;;;;;;;;5048798;28;20209;-39
2022/07/04 13:54:07;;;;;;;1.65;1.40;;;;;;;;;;5051161;28;20300;-38
2022/07/04 13:56:34;;;;;;;1.58;1.13;;;;;;;;;;5051253;28;20235;-34
2022/07/04 13:59:04;;;;;;;1.40;1.30;;;;;;;;;;5048525;28;20205;-36
2022/07/04 14:01:32;;;;;;;1.90;1.05;;;;;;;;;;5045932;28;20217;-33
2022/07/04 14:04:01;;;;;;;1.40;1.30;;;;;;;;;;5045638;28;20213;-39
2022/07/04 14:06:28;;;;;;;1.30;1.20;;;;;;;;;;5045334;28;20217;-40
2022/07/04 14:08:55;;;;;;;1.33;1.00;;;;;;;;;;5051907;28;20205;-38
2022/07/04 14:11:23;;;;;;;3.45;1.50;;;;;;;;;;5052223;28;20215;-35
2022/07/04 14:13:51;;;;;;;2.10;1.35;;;;;;;;;;5044986;28;20209;-40
2022/07/04 14:16:18;;;;;;;3.90;1.25;;;;;;;;;;5049429;28;20226;-40
2022/07/04 14:18:45;;;;;;;3.65;1.30;;;;;;;;;;5043686;28;20199;-41
2022/07/04 14:21:14;;;;;;;1.25;1.10;;;;;;;;;;5038331;28;20213;-41
2022/07/04 14:23:41;;;;;;;2.35;1.30;;;;;;;;;;5051484;28;20209;-36
2022/07/04 14:26:09;;;;;;;1.85;1.10;;;;;;;;;;5051680;28;20233;-39
2022/07/04 14:28:38;;;;;;;5.70;1.35;;;;;;;;;;5048115;28;20206;-37
2022/07/04 14:31:05;;;;;;;2.97;1.20;;;;;;;;;;5050229;28;20301;-39
2022/07/04 14:33:33;;;;;;;3.05;1.30;;;;;;;;;;5048380;28;20221;-35
2022/07/04 14:38:36;;;;;;;1.30;1.20;;;;;;;;;;5049999;22;20456;-34
2022/07/04 14:41:10;;;;;;;1.30;1.20;;;;;;;;;;5051854;28;20302;-35
2022/07/04 14:43:42;;;;;;;1.67;1.05;;;;;;;;;;5047020;28;20324;-37
2022/07/04 14:46:09;;;;;;;1.42;1.33;;;;;;;;;;5051157;28;20229;-34
2022/07/04 14:48:37;;;;;;;1.83;1.25;;;;;;;;;;5052769;28;20292;-34
2022/07/04 14:51:04;;;;;;;1.20;1.10;;;;;;;;;;5038494;28;20207;-35
2022/07/04 14:53:31;;;;;;;1.55;1.27;;;;;;;;;;5059768;28;20189;-31
2022/07/04 14:55:58;;;;;;;2.92;1.20;;;;;;;;;;5071398;28;20209;-33
2022/07/04 14:58:26;;;;;;;3.05;1.02;;;;;;;;;;5052246;28;20201;-34
2022/07/04 15:00:54;;;;;;;1.50;1.30;;;;;;;;;;5071797;28;20207;-33
2022/07/04 15:03:21;;;;;;;1.30;1.20;;;;;;;;;;5051349;28;20209;-35
2022/07/04 15:05:48;;;;;;;5.25;1.48;;;;;;;;;;5039349;28;20205;-32
2022/07/04 15:08:15;;;;;;;3.95;1.25;;;;;;;;;;5047453;28;20201;-32
2022/07/04 15:10:43;;;;;;;2.40;1.27;;;;;;;;;;5065926;28;20212;-31
2022/07/04 15:13:10;;;;;;;1.20;1.10;;;;;;;;;;5051409;28;20208;-31
2022/07/04 15:15:37;;;;;;;2.78;1.30;;;;;;;;;;5051413;28;20252;-35
2022/07/04 15:18:06;;;;;;;2.42;1.17;;;;;;;;;;5059766;28;20217;-36
2022/07/04 15:26:05;;;;;;;1.52;1.40;;;;;;;;;;5056070;28;20204;-31
2022/07/04 15:28:32;;;;;;;1.20;1.20;;;;;;;;;;5054093;28;20206;-33
2022/07/04 15:31:00;;;;;;;5.10;1.42;;;;;;;;;;5044480;28;20210;-33
2022/07/04 15:33:30;;;;;;;1.48;1.30;;;;;;;;;;5049113;28;20205;-37
2022/07/04 15:35:57;;;;;;;4.32;1.27;;;;;;;;;;5053894;28;20311;-37
2022/07/04 15:38:25;;;;;;;3.08;1.50;;;;;;;;;;5053014;28;20314;-34
2022/07/04 15:40:52;;;;;;;3.13;1.48;;;;;;;;;;5040295;28;20210;-34
2022/07/04 15:43:19;;;;;;;2.05;1.40;;;;;;;;;;5047493;28;20224;-35
2022/07/04 15:45:46;;;;;;;2.13;1.67;;;;;;;;;;5062045;28;20201;-36
2022/07/04 15:48:13;;;;;;;1.70;1.35;;;;;;;;;;5048240;28;20208;-32
2022/07/04 15:50:43;;;;;;;1.42;1.25;;;;;;;;;;5043596;28;20263;-32
2022/07/04 15:53:10;;;;;;;1.52;1.27;;;;;;;;;;5040956;28;20197;-33
2022/07/04 15:55:37;;;;;;;1.10;1.10;;;;;;;;;;5042157;28;20255;-35
2022/07/04 15:58:04;;;;;;;1.67;1.58;;;;;;;;;;5065197;28;20302;-35